createdAt,value
2023-03-27T00:01:36.943Z,2.28
2023-03-27T00:04:05.743Z,2.38
2023-03-27T00:06:35.691Z,2.58
2023-03-27T00:09:05.374Z,2.84
2023-03-27T00:11:33.710Z,2.73
2023-03-27T00:14:02.333Z,2.59
2023-03-27T00:16:30.706Z,2.93
2023-03-27T00:18:59.019Z,2.64
2023-03-27T00:21:28.369Z,2.59
2023-03-27T00:23:58.035Z,2.85
2023-03-27T00:26:26.383Z,2.98
2023-03-27T00:28:55.034Z,3.16
2023-03-27T00:31:23.418Z,3.22
2023-03-27T00:33:51.832Z,3.21
2023-03-27T00:36:20.277Z,3.15
2023-03-27T00:38:48.515Z,2.87
2023-03-27T00:41:18.441Z,2.93
2023-03-27T00:43:47.069Z,2.98
2023-03-27T00:46:33.582Z,2.97
2023-03-27T00:49:03.485Z,2.94
2023-03-27T00:51:32.589Z,2.81
2023-03-27T00:54:01.414Z,2.55
2023-03-27T00:56:33.981Z,2.47
2023-03-27T00:59:04.060Z,2.27
2023-03-27T01:01:32.611Z,2.06
2023-03-27T01:04:01.922Z,1.96
2023-03-27T01:06:31.494Z,1.85
2023-03-27T01:09:00.807Z,2.18
2023-03-27T01:11:37.880Z,2.24
2023-03-27T01:14:17.013Z,2.21
2023-03-27T01:16:51.361Z,2.41
2023-03-27T01:19:46.593Z,2.20
2023-03-27T01:22:26.551Z,1.99
2023-03-27T01:25:01.144Z,1.91
2023-03-27T01:27:44.822Z,1.73
2023-03-27T01:30:18.840Z,1.66
2023-03-27T01:33:17.686Z,1.78
2023-03-27T01:36:08.403Z,1.72
2023-03-27T01:38:49.705Z,1.62
2023-03-27T01:41:23.294Z,1.69
2023-03-27T01:43:54.940Z,1.58
2023-03-27T01:46:26.910Z,1.43
2023-03-27T01:48:58.432Z,1.47
2023-03-27T01:51:30.553Z,1.58
2023-03-27T01:54:01.127Z,1.67
2023-03-27T01:56:33.126Z,1.91
2023-03-27T01:59:04.915Z,1.77
2023-03-27T02:01:36.528Z,1.84
2023-03-27T02:04:06.855Z,1.81
2023-03-27T02:06:36.878Z,2.04
2023-03-27T02:09:09.033Z,1.89
2023-03-27T02:11:42.453Z,1.78
2023-03-27T02:14:13.160Z,1.89
2023-03-27T02:16:43.380Z,2.06
2023-03-27T02:19:14.682Z,1.75
2023-03-27T02:21:43.026Z,1.82
2023-03-27T02:24:11.380Z,1.86
2023-03-27T02:26:42.414Z,1.97
2023-03-27T02:29:19.822Z,2.08
2023-03-27T02:31:55.987Z,2.05
2023-03-27T02:34:41.715Z,2.21
2023-03-27T02:37:21.618Z,2.16
2023-03-27T02:40:20.318Z,2.18
2023-03-27T02:42:58.194Z,2.24
2023-03-27T02:45:31.832Z,2.32
2023-03-27T02:48:04.903Z,2.35
2023-03-27T02:50:37.613Z,2.33
2023-03-27T02:53:13.429Z,2.41
2023-03-27T02:55:44.847Z,2.42
2023-03-27T02:58:18.637Z,2.41
2023-03-27T03:01:09.592Z,2.40
2023-03-27T03:03:55.565Z,2.38
2023-03-27T03:06:36.253Z,2.35
2023-03-27T03:09:06.588Z,2.34
2023-03-27T03:11:35.771Z,2.35
2023-03-27T03:14:05.673Z,2.38
2023-03-27T03:16:35.530Z,2.44
2023-03-27T03:19:04.286Z,2.48
2023-03-27T03:21:33.880Z,2.46
2023-03-27T03:24:05.072Z,2.42
2023-03-27T03:26:33.637Z,2.41
2023-03-27T03:29:02.113Z,2.44
2023-03-27T03:31:44.725Z,2.45
2023-03-27T03:34:14.706Z,2.44
2023-03-27T03:36:43.467Z,2.47
2023-03-27T03:39:14.886Z,2.36
2023-03-27T03:41:48.537Z,2.42
2023-03-27T03:44:17.290Z,2.42
2023-03-27T03:46:47.170Z,2.55
2023-03-27T03:49:21.725Z,2.58
2023-03-27T03:52:03.447Z,2.71
2023-03-27T03:54:34.862Z,2.68
2023-03-27T03:57:03.866Z,2.84
2023-03-27T03:59:37.110Z,2.92
2023-03-27T04:02:29.962Z,2.94
2023-03-27T04:05:08.553Z,2.94
2023-03-27T04:07:40.396Z,2.93
2023-03-27T04:10:37.426Z,2.90
2023-03-27T04:13:09.608Z,2.88
2023-03-27T04:15:45.234Z,2.97
2023-03-27T04:18:24.914Z,2.98
2023-03-27T04:20:54.597Z,3.04
2023-03-27T04:23:30.605Z,3.06
2023-03-27T04:26:01.263Z,3.01
2023-03-27T04:28:47.455Z,3.12
2023-03-27T04:31:36.211Z,3.04
2023-03-27T04:34:25.032Z,2.99
2023-03-27T04:37:13.947Z,3.06
2023-03-27T04:39:51.017Z,2.98
2023-03-27T04:42:22.988Z,2.92
2023-03-27T04:44:52.708Z,2.90
2023-03-27T04:47:21.905Z,3.06
2023-03-27T04:49:55.218Z,3.14
2023-03-27T04:52:29.806Z,3.05
2023-03-27T04:55:00.561Z,2.99
2023-03-27T04:57:31.106Z,2.86
2023-03-27T05:00:05.954Z,2.98
2023-03-27T05:02:57.901Z,3.03
2023-03-27T05:05:39.735Z,2.98
2023-03-27T05:08:08.852Z,3.02
2023-03-27T05:10:37.351Z,3.05
2023-03-27T05:13:05.885Z,3.00
2023-03-27T05:15:35.726Z,2.99
2023-03-27T05:18:09.437Z,2.94
2023-03-27T05:20:39.844Z,2.84
2023-03-27T05:23:11.071Z,2.86
2023-03-27T05:25:45.658Z,2.74
2023-03-27T05:28:48.129Z,2.71
2023-03-27T05:31:17.645Z,2.68
2023-03-27T05:33:59.183Z,2.66
2023-03-27T05:36:33.095Z,2.64
2023-03-27T05:39:02.153Z,2.62
2023-03-27T05:41:42.122Z,2.63
2023-03-27T05:44:11.903Z,2.65
2023-03-27T05:46:47.186Z,2.64
2023-03-27T05:49:22.789Z,2.63
2023-03-27T05:51:59.206Z,2.57
2023-03-27T05:54:28.128Z,2.53
2023-03-27T05:57:01.645Z,2.54
2023-03-27T05:59:30.344Z,2.52
2023-03-27T06:02:21.029Z,2.50
2023-03-27T06:05:14.163Z,2.56
2023-03-27T06:07:49.624Z,2.55
2023-03-27T06:10:20.571Z,2.55
2023-03-27T06:13:15.192Z,2.58
2023-03-27T06:16:08.559Z,2.58
2023-03-27T06:18:57.688Z,2.59
2023-03-27T06:21:26.730Z,2.61
2023-03-27T06:24:09.184Z,2.64
2023-03-27T06:26:40.310Z,2.68
2023-03-27T06:29:09.409Z,2.71
2023-03-27T06:31:46.093Z,2.74
2023-03-27T06:34:20.711Z,2.70
2023-03-27T06:36:55.379Z,2.71
2023-03-27T06:39:27.510Z,2.73
2023-03-27T06:41:56.553Z,2.72
2023-03-27T06:44:24.870Z,2.72
2023-03-27T06:47:07.066Z,2.76
2023-03-27T06:49:58.674Z,2.71
2023-03-27T06:52:26.953Z,2.72
2023-03-27T06:55:04.530Z,2.65
2023-03-27T06:57:33.790Z,2.67
2023-03-27T07:00:11.130Z,2.61
2023-03-27T07:02:58.389Z,2.58
2023-03-27T07:06:02.489Z,2.60
2023-03-27T07:08:42.523Z,2.57
2023-03-27T07:11:12.777Z,2.53
2023-03-27T07:13:51.199Z,2.55
2023-03-27T07:16:32.619Z,2.45
2023-03-27T07:19:02.520Z,2.40
2023-03-27T07:21:33.716Z,2.36
2023-03-27T07:24:02.499Z,2.45
2023-03-27T07:26:37.107Z,2.52
2023-03-27T07:29:15.069Z,2.52
2023-03-27T07:31:57.663Z,2.40
2023-03-27T07:34:50.656Z,2.44
2023-03-27T07:37:18.984Z,2.41
2023-03-27T07:40:33.094Z,2.38
2023-03-27T07:43:32.033Z,2.24
2023-03-27T07:46:01.726Z,2.22
2023-03-27T07:48:30.670Z,2.17
2023-03-27T07:51:10.873Z,2.13
2023-03-27T07:53:43.922Z,2.07
2023-03-27T07:56:30.348Z,2.15
2023-03-27T07:59:20.973Z,2.15
2023-03-27T08:01:50.881Z,2.04
2023-03-27T08:04:21.069Z,1.99
2023-03-27T08:07:04.689Z,1.95
2023-03-27T08:09:33.487Z,2.12
2023-03-27T08:12:02.262Z,2.11
2023-03-27T08:14:33.869Z,2.19
2023-03-27T08:17:16.325Z,2.12
2023-03-27T08:19:46.561Z,2.08
2023-03-27T08:22:16.096Z,2.19
2023-03-27T08:25:03.904Z,2.13
2023-03-27T08:27:33.369Z,2.10
2023-03-27T08:30:04.102Z,1.94
2023-03-27T08:32:35.681Z,1.88
2023-03-27T08:35:09.540Z,1.79
2023-03-27T08:37:38.068Z,1.88
2023-03-27T08:40:37.292Z,1.92
2023-03-27T08:43:30.088Z,1.80
2023-03-27T08:46:03.338Z,1.80
2023-03-27T08:48:39.133Z,1.74
2023-03-27T08:51:12.482Z,1.78
2023-03-27T08:53:46.531Z,1.74
2023-03-27T08:56:15.696Z,1.62
2023-03-27T08:58:46.651Z,1.64
2023-03-27T09:01:26.992Z,1.75
2023-03-27T09:04:00.949Z,1.78
2023-03-27T09:06:38.590Z,1.79
2023-03-27T09:09:10.984Z,1.93
2023-03-27T09:11:46.551Z,2.22
2023-03-27T09:14:20.315Z,2.19
2023-03-27T09:16:51.638Z,2.13
2023-03-27T09:19:32.992Z,2.04
2023-03-27T09:22:06.015Z,2.00
2023-03-27T09:24:49.167Z,1.93
2023-03-27T09:27:19.756Z,1.85
2023-03-27T09:30:04.927Z,1.87
2023-03-27T09:32:55.551Z,1.78
2023-03-27T09:35:24.227Z,1.71
2023-03-27T09:37:56.917Z,1.56
2023-03-27T09:40:33.689Z,1.72
2023-03-27T09:43:08.317Z,1.72
2023-03-27T09:45:40.999Z,1.93
2023-03-27T09:48:16.583Z,1.64
2023-03-27T09:50:47.572Z,1.96
2023-03-27T09:53:58.789Z,2.25
2023-03-27T09:56:31.419Z,2.42
2023-03-27T09:59:00.553Z,2.30
2023-03-27T10:01:30.587Z,2.20
2023-03-27T10:04:15.484Z,2.08
2023-03-27T10:06:48.236Z,1.96
2023-03-27T10:09:23.005Z,2.03
2023-03-27T10:12:01.017Z,2.00
2023-03-27T10:14:33.112Z,2.04
2023-03-27T10:17:02.405Z,1.92
2023-03-27T10:19:34.089Z,1.98
2023-03-27T10:22:08.312Z,2.07
2023-03-27T10:24:44.407Z,2.25
2023-03-27T10:27:26.755Z,2.38
2023-03-27T10:30:28.851Z,2.12
2023-03-27T10:33:08.753Z,2.22
2023-03-27T10:35:56.558Z,2.45
2023-03-27T10:38:29.252Z,2.69
2023-03-27T10:41:10.565Z,2.45
2023-03-27T10:43:46.854Z,2.37
2023-03-27T10:46:17.216Z,2.45
2023-03-27T10:48:51.911Z,2.44
2023-03-27T10:51:45.583Z,2.40
2023-03-27T10:54:26.438Z,2.32
2023-03-27T10:56:58.846Z,2.33
2023-03-27T10:59:41.462Z,2.38
2023-03-27T11:02:21.894Z,2.71
2023-03-27T11:04:54.587Z,3.04
2023-03-27T11:07:29.003Z,3.09
2023-03-27T11:10:00.657Z,2.76
2023-03-27T11:12:34.650Z,2.66
2023-03-27T11:15:07.693Z,2.48
2023-03-27T11:17:41.065Z,2.42
2023-03-27T11:20:27.489Z,2.37
2023-03-27T11:23:06.025Z,2.53
2023-03-27T11:26:00.234Z,2.53
2023-03-27T11:28:34.163Z,2.79
2023-03-27T11:31:12.350Z,2.90
2023-03-27T11:33:48.302Z,2.75
2023-03-27T11:36:24.260Z,2.72
2023-03-27T11:39:06.784Z,2.54
2023-03-27T11:41:35.826Z,2.36
2023-03-27T11:44:04.849Z,2.33
2023-03-27T11:47:10.532Z,2.04
2023-03-27T11:49:52.327Z,1.96
2023-03-27T11:52:28.824Z,1.79
2023-03-27T11:55:07.748Z,2.07
2023-03-27T11:57:46.246Z,1.99
2023-03-27T12:00:34.107Z,2.18
2023-03-27T12:03:29.033Z,2.14
2023-03-27T12:06:03.482Z,1.87
2023-03-27T12:08:45.985Z,1.74
2023-03-27T12:11:17.884Z,1.55
2023-03-27T12:14:14.016Z,1.64
2023-03-27T12:16:56.344Z,1.81
2023-03-27T12:19:38.842Z,1.90
2023-03-27T12:22:24.367Z,1.97
2023-03-27T12:25:06.386Z,1.99
2023-03-27T12:28:01.538Z,2.16
2023-03-27T12:30:51.522Z,2.24
2023-03-27T12:33:30.368Z,2.33
2023-03-27T12:36:00.392Z,2.32
2023-03-27T12:38:30.648Z,2.37
2023-03-27T12:41:05.599Z,2.45
2023-03-27T12:43:59.337Z,2.55
2023-03-27T12:46:33.158Z,2.48
2023-03-27T12:49:02.784Z,2.40
2023-03-27T12:51:39.661Z,2.35
2023-03-27T12:54:23.606Z,2.31
2023-03-27T12:56:53.374Z,2.33
2023-03-27T12:59:27.399Z,2.26
2023-03-27T13:02:05.173Z,2.21
2023-03-27T13:05:10.745Z,2.14
2023-03-27T13:07:53.433Z,2.14
2023-03-27T13:10:46.995Z,2.31
2023-03-27T13:13:30.496Z,2.37
2023-03-27T13:16:17.818Z,2.70
2023-03-27T13:19:07.399Z,2.70
2023-03-27T13:21:53.066Z,2.44
2023-03-27T13:24:30.958Z,2.35
2023-03-27T13:27:07.901Z,2.39
2023-03-27T13:29:39.422Z,2.36
2023-03-27T13:32:34.648Z,2.36
2023-03-27T13:35:28.201Z,2.23
2023-03-27T13:38:00.897Z,2.25
2023-03-27T13:40:55.250Z,2.25
2023-03-27T13:43:28.720Z,2.22
2023-03-27T13:46:24.964Z,2.28
2023-03-27T13:49:18.472Z,2.22
2023-03-27T13:52:07.736Z,2.14
2023-03-27T13:55:03.581Z,2.06
2023-03-27T13:57:59.183Z,2.03
2023-03-27T14:00:44.057Z,1.90
2023-03-27T14:03:41.455Z,1.79
2023-03-27T14:06:33.222Z,1.74
2023-03-27T14:09:13.429Z,1.65
2023-03-27T14:12:12.309Z,1.60
2023-03-27T14:15:10.636Z,1.64
2023-03-27T14:17:48.359Z,1.55
2023-03-27T14:20:23.308Z,1.59
2023-03-27T14:22:58.289Z,1.58
2023-03-27T14:25:36.665Z,1.59
2023-03-27T14:28:29.940Z,1.58
2023-03-27T14:31:06.271Z,1.50
2023-03-27T14:34:17.937Z,1.47
2023-03-27T14:36:52.266Z,1.47
2023-03-27T14:39:37.970Z,1.42
2023-03-27T14:42:18.009Z,1.35
2023-03-27T14:44:49.812Z,1.34
2023-03-27T14:47:19.968Z,1.25
2023-03-27T14:49:50.606Z,1.29
2023-03-27T14:52:37.492Z,1.33
2023-03-27T14:55:26.297Z,1.26
2023-03-27T14:58:18.873Z,1.12
2023-03-27T15:00:51.881Z,1.11
2023-03-27T15:03:23.375Z,1.05
2023-03-27T15:06:00.893Z,1.04
2023-03-27T15:08:37.299Z,1.00
2023-03-27T15:11:37.645Z,0.95
2023-03-27T15:14:17.216Z,0.93
2023-03-27T15:16:49.053Z,0.95
2023-03-27T15:19:21.304Z,0.84
2023-03-27T15:21:51.184Z,0.79
2023-03-27T15:24:25.505Z,0.79
2023-03-27T15:26:55.322Z,0.70
2023-03-27T15:29:32.466Z,0.67
2023-03-27T15:32:02.363Z,0.69
2023-03-27T15:34:36.690Z,0.70
2023-03-27T15:37:06.992Z,0.68
2023-03-27T15:39:37.996Z,0.59
2023-03-27T15:42:07.187Z,0.59
2023-03-27T15:44:39.922Z,0.53
2023-03-27T15:47:24.908Z,0.49
2023-03-27T15:50:07.041Z,0.51
2023-03-27T15:52:35.719Z,0.56
2023-03-27T15:55:04.605Z,0.47
2023-03-27T15:57:33.178Z,0.48
2023-03-27T16:00:08.100Z,0.48
2023-03-27T16:02:41.236Z,0.42
2023-03-27T16:05:10.680Z,0.38
2023-03-27T16:07:46.450Z,0.33
2023-03-27T16:10:15.707Z,0.32
2023-03-27T16:12:50.719Z,0.27
2023-03-27T16:15:30.615Z,0.26
2023-03-27T16:17:59.716Z,0.18
2023-03-27T16:20:46.551Z,0.13
2023-03-27T16:23:15.081Z,0.08
2023-03-27T16:25:43.311Z,0.01
2023-03-27T16:28:13.626Z,-0.10
2023-03-27T16:30:43.522Z,-0.14
2023-03-27T16:33:23.669Z,-0.18
2023-03-27T16:35:52.445Z,-0.29
2023-03-27T16:38:22.019Z,-0.32
2023-03-27T16:40:50.292Z,-0.37
2023-03-27T16:43:18.548Z,-0.39
2023-03-27T16:45:53.462Z,-0.44
2023-03-27T16:48:26.319Z,-0.45
2023-03-27T16:50:54.654Z,-0.49
2023-03-27T16:53:22.905Z,-0.45
2023-03-27T16:55:54.307Z,-0.46
2023-03-27T16:58:22.683Z,-0.41
2023-03-27T17:00:52.412Z,-0.36
2023-03-27T17:03:20.766Z,-0.32
2023-03-27T17:05:49.159Z,-0.33
2023-03-27T17:08:18.854Z,-0.42
2023-03-27T17:10:47.378Z,-0.46
2023-03-27T17:13:15.792Z,-0.54
2023-03-27T17:15:44.064Z,-0.60
2023-03-27T17:18:27.137Z,-0.69
2023-03-27T17:20:55.432Z,-0.70
2023-03-27T17:23:23.773Z,-0.73
2023-03-27T17:25:52.506Z,-0.76
2023-03-27T17:28:20.687Z,-0.81
2023-03-27T17:31:00.873Z,-0.80
2023-03-27T17:33:34.554Z,-0.81
2023-03-27T17:36:08.040Z,-0.79
2023-03-27T17:38:36.866Z,-0.79
2023-03-27T17:41:05.310Z,-0.81
2023-03-27T17:43:38.417Z,-0.86
2023-03-27T17:46:08.680Z,-0.85
2023-03-27T17:48:38.378Z,-0.91
2023-03-27T17:51:09.482Z,-0.91
2023-03-27T17:53:38.876Z,-0.95
2023-03-27T17:56:07.816Z,-0.99
2023-03-27T17:58:37.313Z,-0.95
2023-03-27T18:01:14.580Z,-0.98
2023-03-27T18:03:45.359Z,-0.95
2023-03-27T18:06:13.810Z,-1.00
2023-03-27T18:08:42.520Z,-1.13
2023-03-27T18:11:11.415Z,-1.13
2023-03-27T18:13:40.263Z,-1.16
2023-03-27T18:16:10.999Z,-1.28
2023-03-27T18:18:40.391Z,-1.40
2023-03-27T18:21:13.355Z,-1.33
2023-03-27T18:23:45.811Z,-1.37
2023-03-27T18:26:15.831Z,-1.36
2023-03-27T18:28:45.073Z,-1.34
2023-03-27T18:31:13.520Z,-1.40
2023-03-27T18:33:41.944Z,-1.47
2023-03-27T18:36:12.290Z,-1.49
2023-03-27T18:38:43.854Z,-1.52
2023-03-27T18:41:12.488Z,-1.51
2023-03-27T18:43:40.812Z,-1.56
2023-03-27T18:46:10.953Z,-1.51
2023-03-27T18:48:39.328Z,-1.50
2023-03-27T18:51:07.750Z,-1.50
2023-03-27T18:53:37.490Z,-1.54
2023-03-27T18:56:05.903Z,-1.56
2023-03-27T18:58:35.529Z,-1.60
2023-03-27T19:01:04.256Z,-1.63
2023-03-27T19:03:35.468Z,-1.61
2023-03-27T19:06:05.995Z,-1.63
2023-03-27T19:08:37.870Z,-1.63
2023-03-27T19:11:08.388Z,-1.64
2023-03-27T19:13:57.826Z,-1.68
2023-03-27T19:16:35.320Z,-1.69
2023-03-27T19:19:06.707Z,-1.73
2023-03-27T19:21:45.785Z,-1.78
2023-03-27T19:24:22.516Z,-1.74
2023-03-27T19:26:53.018Z,-1.76
2023-03-27T19:29:21.407Z,-1.74
2023-03-27T19:31:52.591Z,-1.77
2023-03-27T19:34:29.894Z,-1.75
2023-03-27T19:37:04.624Z,-1.78
2023-03-27T19:39:33.167Z,-1.81
2023-03-27T19:42:03.172Z,-1.81
2023-03-27T19:44:31.903Z,-1.81
2023-03-27T19:47:00.799Z,-1.83
2023-03-27T19:49:29.229Z,-1.87
2023-03-27T19:52:19.806Z,-1.92
2023-03-27T19:54:48.251Z,-1.92
2023-03-27T19:57:18.260Z,-1.95
2023-03-27T19:59:46.681Z,-1.95
2023-03-27T20:02:15.632Z,-2.00
2023-03-27T20:04:43.961Z,-2.04
2023-03-27T20:07:12.234Z,-2.03
2023-03-27T20:09:40.500Z,-2.06
2023-03-27T20:12:12.672Z,-2.04
2023-03-27T20:14:46.523Z,-2.01
2023-03-27T20:17:27.909Z,-1.88
2023-03-27T20:19:57.093Z,-1.80
2023-03-27T20:22:25.359Z,-1.68
2023-03-27T20:24:54.420Z,-1.77
2023-03-27T20:27:22.927Z,-1.66
2023-03-27T20:29:52.999Z,-1.56
2023-03-27T20:32:21.427Z,-1.74
2023-03-27T20:34:51.067Z,-1.83
2023-03-27T20:37:19.651Z,-1.84
2023-03-27T20:39:58.244Z,-1.79
2023-03-27T20:42:26.924Z,-1.69
2023-03-27T20:44:58.643Z,-1.61
2023-03-27T20:47:26.912Z,-1.48
2023-03-27T20:49:59.014Z,-1.37
2023-03-27T20:52:27.538Z,-1.43
2023-03-27T20:54:57.262Z,-1.68
2023-03-27T20:57:25.512Z,-1.67
2023-03-27T20:59:54.517Z,-1.88
2023-03-27T21:02:24.276Z,-2.03
2023-03-27T21:04:52.638Z,-1.96
2023-03-27T21:07:20.877Z,-2.00
2023-03-27T21:09:49.166Z,-2.07
2023-03-27T21:12:17.448Z,-1.96
2023-03-27T21:14:45.883Z,-1.95
2023-03-27T21:17:14.193Z,-1.89
2023-03-27T21:19:43.898Z,-1.78
2023-03-27T21:22:12.151Z,-1.82
2023-03-27T21:24:41.453Z,-2.01
2023-03-27T21:27:09.695Z,-2.01
2023-03-27T21:29:38.079Z,-2.05
2023-03-27T21:32:07.304Z,-2.03
2023-03-27T21:34:35.736Z,-2.04
2023-03-27T21:37:05.872Z,-1.99
2023-03-27T21:39:34.170Z,-2.02
2023-03-27T21:42:02.662Z,-2.00
2023-03-27T21:44:31.016Z,-2.00
2023-03-27T21:46:59.205Z,-1.96
2023-03-27T21:49:27.623Z,-1.98
2023-03-27T21:51:55.883Z,-1.99
2023-03-27T21:54:26.136Z,-1.97
2023-03-27T21:56:54.421Z,-1.95
2023-03-27T21:59:22.793Z,-1.96
2023-03-27T22:01:51.254Z,-1.95
2023-03-27T22:04:21.705Z,-1.97
2023-03-27T22:06:50.328Z,-1.99
2023-03-27T22:09:18.534Z,-1.99
2023-03-27T22:11:48.313Z,-2.01
2023-03-27T22:14:16.679Z,-2.04
2023-03-27T22:16:45.272Z,-2.08
2023-03-27T22:19:13.514Z,-2.12
2023-03-27T22:21:41.981Z,-2.18
2023-03-27T22:24:10.327Z,-2.21
2023-03-27T22:26:40.040Z,-2.20
2023-03-27T22:29:10.506Z,-2.23
2023-03-27T22:31:39.176Z,-2.25
2023-03-27T22:34:07.505Z,-2.25
2023-03-27T22:36:35.814Z,-2.28
2023-03-27T22:39:04.148Z,-2.29
2023-03-27T22:41:32.455Z,-2.28
2023-03-27T22:44:01.941Z,-2.27
2023-03-27T22:46:31.793Z,-2.24
2023-03-27T22:49:00.586Z,-2.24
2023-03-27T22:51:29.754Z,-2.24
2023-03-27T22:53:58.040Z,-2.29
2023-03-27T22:56:26.591Z,-2.27
2023-03-27T22:58:54.793Z,-2.31
2023-03-27T23:01:23.095Z,-2.31
2023-03-27T23:03:53.360Z,-2.36
2023-03-27T23:06:23.233Z,-2.45
2023-03-27T23:08:51.492Z,-2.45
2023-03-27T23:11:20.295Z,-2.49
2023-03-27T23:13:48.825Z,-2.48
2023-03-27T23:16:17.357Z,-2.47
2023-03-27T23:18:45.736Z,-2.47
2023-03-27T23:21:16.973Z,-2.42
2023-03-27T23:23:45.456Z,-2.49
2023-03-27T23:26:13.819Z,-2.52
2023-03-27T23:28:42.770Z,-2.46
2023-03-27T23:31:13.249Z,-2.47
2023-03-27T23:33:42.551Z,-2.52
2023-03-27T23:36:11.607Z,-2.58
2023-03-27T23:38:42.137Z,-2.57
2023-03-27T23:41:11.145Z,-2.63
2023-03-27T23:43:39.357Z,-2.62
2023-03-27T23:46:10.879Z,-2.54
2023-03-27T23:48:40.200Z,-2.63
2023-03-27T23:51:08.899Z,-2.64
2023-03-27T23:53:37.567Z,-2.67
2023-03-27T23:56:07.837Z,-2.65
2023-03-27T23:58:37.493Z,-2.63
